Terminal Aerodrome Forecast
Issued by NWS

Home | Current Version | Previous Version | Graphics & Text | Print | Product List | Glossary On
Versions: 1 2 3 4 5 6 7 8 9 10 11 12 13 14 15 16 17 18 19 20
942
FTUS43 KMPX 291720
TAFRNH
TAF
KRNH 291720Z 2918/3018 27011G18KT P6SM VCSH SCT020 BKN040
     FM300100 27006KT P6SM FEW050
     FM300800 VRB03KT 3SM BR FEW005
     FM301200 24005KT P6SM SKC=

USA.gov is the U.S. government's official web portal to all federal, state and local government web resources and services.